createdAt,value
2019-03-03T00:02:31.273Z,2.43
2019-03-03T00:05:20.108Z,3.97
2019-03-03T00:08:08.947Z,3.67
2019-03-03T00:10:57.817Z,3.73
2019-03-03T00:13:46.613Z,5.70
2019-03-03T00:16:35.436Z,3.03
2019-03-03T00:19:24.314Z,4.67
2019-03-03T00:22:13.175Z,5.10
2019-03-03T00:25:02.040Z,3.80
2019-03-03T00:27:50.938Z,2.53
2019-03-03T00:30:39.915Z,3.80
2019-03-03T00:33:28.767Z,2.70
2019-03-03T00:39:46.021Z,4.00
2019-03-03T00:45:49.498Z,4.47
2019-03-03T00:48:50.571Z,2.67
2019-03-03T00:51:58.448Z,2.63
2019-03-03T00:58:15.715Z,3.60
2019-03-03T01:04:32.970Z,3.33
2019-03-03T01:07:40.799Z,4.53
2019-03-03T01:10:48.675Z,3.90
2019-03-03T01:13:56.561Z,3.53
2019-03-03T01:17:04.406Z,3.93
2019-03-03T01:20:12.277Z,4.63
2019-03-03T01:23:03.100Z,3.13
2019-03-03T01:25:51.435Z,3.90
2019-03-03T01:28:40.247Z,4.27
2019-03-03T01:31:21.829Z,4.37
2019-03-03T01:34:10.651Z,3.90
2019-03-03T01:36:59.507Z,3.87
2019-03-03T01:39:48.312Z,4.20
2019-03-03T01:42:37.231Z,3.20
2019-03-03T01:45:26.112Z,3.73
2019-03-03T01:48:14.964Z,2.60
2019-03-03T01:51:03.791Z,3.83
2019-03-03T01:53:52.624Z,3.23
2019-03-03T01:56:34.251Z,5.73
2019-03-03T01:59:23.065Z,2.90
2019-03-03T02:02:12.014Z,3.93
2019-03-03T02:05:00.905Z,3.70
2019-03-03T02:07:49.800Z,3.03
2019-03-03T02:10:38.649Z,4.67
2019-03-03T02:13:27.547Z,2.90
2019-03-03T02:16:16.453Z,5.93
2019-03-03T02:19:05.440Z,4.30
2019-03-03T02:21:54.273Z,3.47
2019-03-03T02:24:43.175Z,3.77
2019-03-03T02:27:32.034Z,3.60
2019-03-03T02:30:41.838Z,6.60
2019-03-03T02:33:30.649Z,4.70
2019-03-03T02:36:19.511Z,3.63
2019-03-03T02:39:27.629Z,3.47
2019-03-03T02:42:16.568Z,3.70
2019-03-03T02:45:26.290Z,5.70
2019-03-03T02:48:15.127Z,5.73
2019-03-03T02:54:18.496Z,3.47
2019-03-03T02:57:00.204Z,4.40
2019-03-03T02:59:49.047Z,6.10
2019-03-03T03:02:57.014Z,3.53
2019-03-03T03:05:40.782Z,3.67
2019-03-03T03:08:48.729Z,4.13
2019-03-03T03:11:56.764Z,3.57
2019-03-03T03:15:04.608Z,3.17
2019-03-03T03:21:08.291Z,3.80
2019-03-03T03:24:16.154Z,3.87
2019-03-03T03:30:33.567Z,5.63
2019-03-03T03:36:50.812Z,7.03
2019-03-03T03:43:08.060Z,4.53
2019-03-03T03:49:11.742Z,4.33
2019-03-03T03:52:19.619Z,3.40
2019-03-03T03:55:27.776Z,4.43
2019-03-03T03:58:35.630Z,4.57
2019-03-03T04:04:14.771Z,3.97
2019-03-03T04:07:22.760Z,5.43
2019-03-03T04:10:30.660Z,4.07
2019-03-03T04:13:38.589Z,4.50
2019-03-03T04:19:45.698Z,6.37
2019-03-03T04:22:53.519Z,3.20
2019-03-03T04:26:01.417Z,5.80
2019-03-03T04:29:09.248Z,5.67
2019-03-03T04:32:17.188Z,3.23
2019-03-03T04:35:01.823Z,4.50
2019-03-03T04:50:09.847Z,5.73
2019-03-03T04:53:17.694Z,3.13
2019-03-03T04:56:25.554Z,3.67
2019-03-03T04:59:33.423Z,4.93
2019-03-03T05:02:41.290Z,5.93
2019-03-03T05:08:44.879Z,6.07
2019-03-03T05:20:39.657Z,3.87
2019-03-03T05:23:28.500Z,7.20
2019-03-03T05:26:17.315Z,5.33
2019-03-03T05:29:06.146Z,6.23
2019-03-03T05:31:55.055Z,3.97
2019-03-03T05:34:43.856Z,4.30
2019-03-03T05:37:32.723Z,4.10
2019-03-03T05:40:21.515Z,5.33
2019-03-03T05:43:10.344Z,3.77
2019-03-03T05:45:59.279Z,4.07
2019-03-03T05:48:48.081Z,4.93
2019-03-03T05:51:29.931Z,3.97
2019-03-03T05:54:18.745Z,4.23
2019-03-03T05:57:07.574Z,5.30
2019-03-03T05:59:56.486Z,5.67
2019-03-03T06:02:45.343Z,6.57
2019-03-03T06:05:34.176Z,4.03
2019-03-03T06:08:23.022Z,8.30
2019-03-03T06:11:11.828Z,6.03
2019-03-03T06:14:00.683Z,6.63
2019-03-03T06:16:49.517Z,7.20
2019-03-03T06:19:38.355Z,4.13
2019-03-03T06:22:27.149Z,5.67
2019-03-03T06:25:16.060Z,6.20
2019-03-03T06:27:55.798Z,5.43
2019-03-03T06:30:44.645Z,4.77
2019-03-03T06:33:33.553Z,5.30
2019-03-03T06:36:22.422Z,6.40
2019-03-03T06:39:11.324Z,4.17
2019-03-03T06:42:00.142Z,6.10
2019-03-03T06:44:48.960Z,3.47
2019-03-03T06:47:37.802Z,5.30
2019-03-03T06:50:26.601Z,3.27
2019-03-03T06:53:15.527Z,4.07
2019-03-03T06:55:56.910Z,4.60
2019-03-03T06:58:39.207Z,5.53
2019-03-03T07:01:28.033Z,5.80
2019-03-03T07:04:16.889Z,6.20
2019-03-03T07:07:05.721Z,4.03
2019-03-03T07:09:54.548Z,5.30
2019-03-03T07:12:43.482Z,4.30
2019-03-03T07:15:32.384Z,4.33
2019-03-03T07:18:21.195Z,5.33
2019-03-03T07:21:10.033Z,6.00
2019-03-03T07:23:58.841Z,8.13
2019-03-03T07:26:47.777Z,9.57
2019-03-03T07:29:36.612Z,5.10
2019-03-03T07:32:25.457Z,7.33
2019-03-03T07:35:14.315Z,6.63
2019-03-03T07:38:03.163Z,6.37
2019-03-03T07:40:51.957Z,5.17
2019-03-03T07:43:40.809Z,9.23
2019-03-03T07:46:29.624Z,6.23
2019-03-03T07:49:18.479Z,7.17
2019-03-03T07:51:59.734Z,4.73
2019-03-03T07:54:48.560Z,7.53
2019-03-03T07:57:37.486Z,4.40
2019-03-03T08:00:26.466Z,5.83
2019-03-03T08:03:15.317Z,6.70
2019-03-03T08:06:04.215Z,4.53
2019-03-03T08:08:53.080Z,4.83
2019-03-03T08:11:41.936Z,5.77
2019-03-03T08:14:30.801Z,5.00
2019-03-03T08:17:19.662Z,8.17
2019-03-03T08:20:29.425Z,5.57
2019-03-03T08:23:18.242Z,5.10
2019-03-03T08:26:07.229Z,6.17
2019-03-03T08:28:56.039Z,4.27
2019-03-03T08:31:44.882Z,2.43
2019-03-03T08:34:33.702Z,7.93
2019-03-03T08:37:22.555Z,7.10
2019-03-03T08:40:12.040Z,7.83
2019-03-03T08:43:19.889Z,4.60
2019-03-03T08:55:31.942Z,3.77
2019-03-03T09:01:49.182Z,2.53
2019-03-03T09:04:57.139Z,3.77
2019-03-03T09:10:48.199Z,2.50
2019-03-03T09:16:51.747Z,3.57
2019-03-03T09:19:59.627Z,3.47
2019-03-03T09:22:48.284Z,1.83
2019-03-03T09:25:56.299Z,1.37
2019-03-03T09:29:04.154Z,1.83
2019-03-03T09:38:06.926Z,1.10
2019-03-03T09:41:14.917Z,2.87
2019-03-03T09:44:22.917Z,1.60
2019-03-03T09:50:40.307Z,2.43
2019-03-03T09:56:44.088Z,1.43
2019-03-03T09:59:51.968Z,1.50
2019-03-03T10:02:39.739Z,2.23
2019-03-03T10:05:47.694Z,2.30
2019-03-03T10:08:55.535Z,1.50
2019-03-03T10:15:02.657Z,2.57
2019-03-03T10:18:10.539Z,2.30
2019-03-03T10:21:18.425Z,1.47
2019-03-03T10:24:26.285Z,2.93
2019-03-03T10:27:34.235Z,1.83
2019-03-03T10:30:42.205Z,2.83
2019-03-03T10:33:50.109Z,2.17
2019-03-03T10:39:53.779Z,2.60
2019-03-03T10:43:01.653Z,1.83
2019-03-03T10:46:09.563Z,1.93
2019-03-03T10:49:17.519Z,2.23
2019-03-03T10:51:58.640Z,1.70
2019-03-03T10:58:15.903Z,2.23
2019-03-03T11:01:01.582Z,1.80
2019-03-03T11:04:09.605Z,2.10
2019-03-03T11:07:17.435Z,2.17
2019-03-03T11:16:18.835Z,1.47
2019-03-03T11:19:26.813Z,3.60
2019-03-03T11:22:34.838Z,6.37
2019-03-03T11:25:42.793Z,7.40
2019-03-03T11:28:50.664Z,4.83
2019-03-03T11:31:58.529Z,2.97
2019-03-03T11:35:06.391Z,2.33
2019-03-03T11:38:14.275Z,1.97
2019-03-03T11:41:22.098Z,2.10
2019-03-03T11:47:25.547Z,3.30
2019-03-03T11:53:32.789Z,2.40
2019-03-03T11:56:40.744Z,1.93
2019-03-03T11:59:48.965Z,2.80
2019-03-03T12:02:54.029Z,2.50
2019-03-03T12:05:58.610Z,4.20
2019-03-03T12:11:46.648Z,2.70
2019-03-03T12:14:35.305Z,1.90
2019-03-03T12:20:39.217Z,1.70
2019-03-03T12:26:46.391Z,2.40
2019-03-03T12:29:54.404Z,1.80
2019-03-03T12:33:02.248Z,1.30
2019-03-03T12:39:09.518Z,2.07
2019-03-03T12:42:17.417Z,1.57
2019-03-03T12:48:15.702Z,1.23
2019-03-03T12:54:33.113Z,1.30
2019-03-03T12:57:40.971Z,1.50
2019-03-03T13:00:48.928Z,0.93
2019-03-03T13:03:49.510Z,1.37
2019-03-03T13:06:57.461Z,0.93
2019-03-03T13:10:05.381Z,0.90
2019-03-03T13:13:13.261Z,2.37
2019-03-03T13:16:21.145Z,1.33
2019-03-03T13:22:37.720Z,2.27
2019-03-03T13:25:45.691Z,2.10
2019-03-03T13:28:25.246Z,1.90
2019-03-03T13:34:29.211Z,2.67
2019-03-03T13:37:37.087Z,2.63
2019-03-03T13:43:21.470Z,1.17
2019-03-03T13:46:10.415Z,2.67
2019-03-03T13:48:59.257Z,1.43
2019-03-03T13:51:48.102Z,2.80
2019-03-03T13:54:36.944Z,2.17
2019-03-03T13:57:26.048Z,1.50
2019-03-03T14:00:26.935Z,2.60
2019-03-03T14:03:15.821Z,1.70
2019-03-03T14:06:04.747Z,2.17
2019-03-03T14:08:53.711Z,1.70
2019-03-03T14:11:42.579Z,1.93
2019-03-03T14:14:31.516Z,1.67
2019-03-03T14:17:20.310Z,2.07
2019-03-03T14:20:28.481Z,1.23
2019-03-03T14:23:17.396Z,1.50
2019-03-03T14:26:06.220Z,3.90
2019-03-03T14:28:55.404Z,2.67
2019-03-03T14:31:45.723Z,1.13
2019-03-03T14:34:34.561Z,3.70
2019-03-03T14:37:23.380Z,1.00
2019-03-03T14:40:33.140Z,2.23
2019-03-03T14:43:22.044Z,2.30
2019-03-03T14:46:10.964Z,1.20
2019-03-03T14:48:59.806Z,3.10
2019-03-03T14:51:48.655Z,1.50
2019-03-03T14:54:37.523Z,2.27
2019-03-03T14:57:19.398Z,2.50
2019-03-03T15:03:24.278Z,2.10
2019-03-03T15:06:05.572Z,3.37
2019-03-03T15:08:54.399Z,2.67
2019-03-03T15:11:43.319Z,3.63
2019-03-03T15:14:32.147Z,3.07
2019-03-03T15:17:20.980Z,2.23
2019-03-03T15:20:10.004Z,2.07
2019-03-03T15:22:58.871Z,3.00
2019-03-03T15:25:47.747Z,3.10
2019-03-03T15:28:36.736Z,1.80
2019-03-03T15:31:25.630Z,3.77
2019-03-03T15:34:14.514Z,2.33
2019-03-03T15:40:32.224Z,2.50
2019-03-03T15:43:21.242Z,2.30
2019-03-03T15:46:10.116Z,2.20
2019-03-03T15:48:58.948Z,2.67
2019-03-03T15:51:47.770Z,2.50
2019-03-03T15:54:36.677Z,5.43
2019-03-03T15:57:25.505Z,3.57
2019-03-03T16:00:35.273Z,3.13
2019-03-03T16:03:17.179Z,4.50
2019-03-03T16:06:06.001Z,3.50
2019-03-03T16:08:54.925Z,3.10
2019-03-03T16:11:43.847Z,2.47
2019-03-03T16:14:32.750Z,2.90
2019-03-03T16:17:21.645Z,3.00
2019-03-03T16:20:31.357Z,5.67
2019-03-03T16:23:20.283Z,4.80
2019-03-03T16:26:09.191Z,2.40
2019-03-03T16:28:58.128Z,2.87
2019-03-03T16:31:46.948Z,3.07
2019-03-03T16:34:35.883Z,3.27
2019-03-03T16:37:24.773Z,2.83
2019-03-03T16:40:39.651Z,4.80
2019-03-03T16:43:23.543Z,2.60
2019-03-03T16:46:12.417Z,2.80
2019-03-03T16:49:01.267Z,2.87
2019-03-03T16:51:50.165Z,4.03
2019-03-03T16:54:39.002Z,3.80
2019-03-03T16:57:20.312Z,4.63
2019-03-03T17:00:30.067Z,2.73
2019-03-03T17:03:18.958Z,3.20
2019-03-03T17:06:07.821Z,3.77
2019-03-03T17:08:56.778Z,4.57
2019-03-03T17:11:45.569Z,4.10
2019-03-03T17:14:34.642Z,6.33
2019-03-03T17:17:23.566Z,3.53
2019-03-03T17:20:12.451Z,4.70
2019-03-03T17:23:01.455Z,4.53
2019-03-03T17:25:50.254Z,5.50
2019-03-03T17:31:46.914Z,4.87
2019-03-03T17:34:35.831Z,4.30
2019-03-03T17:37:24.633Z,5.33
2019-03-03T17:40:34.429Z,5.33
2019-03-03T17:43:23.351Z,4.13
2019-03-03T17:46:12.250Z,4.77
2019-03-03T17:49:01.246Z,4.50
2019-03-03T17:51:50.279Z,3.87
2019-03-03T17:54:39.097Z,2.37
2019-03-03T17:57:21.020Z,4.10
2019-03-03T18:03:40.143Z,3.80
2019-03-03T18:06:38.368Z,7.63
2019-03-03T18:12:29.116Z,6.07
2019-03-03T18:15:18.299Z,4.97
2019-03-03T18:18:07.200Z,7.10
2019-03-03T18:20:49.119Z,5.77
2019-03-03T18:23:38.042Z,5.20
2019-03-03T18:26:26.983Z,5.27
2019-03-03T18:29:15.881Z,4.70
2019-03-03T18:32:04.829Z,6.50
2019-03-03T18:34:53.806Z,6.23
2019-03-03T18:37:42.746Z,6.53
2019-03-03T18:40:31.676Z,9.13
2019-03-03T18:43:20.546Z,4.60
2019-03-03T18:46:09.546Z,4.23
2019-03-03T18:48:58.346Z,7.03
2019-03-03T18:51:47.268Z,4.47
2019-03-03T18:54:36.170Z,5.50
2019-03-03T18:57:24.989Z,7.63
2019-03-03T19:00:33.125Z,5.07
2019-03-03T19:03:15.024Z,4.57
2019-03-03T19:06:03.888Z,4.13
2019-03-03T19:08:33.399Z,3.37
2019-03-03T19:11:22.332Z,5.40
2019-03-03T19:14:11.212Z,3.27
2019-03-03T19:17:00.088Z,7.07
2019-03-03T19:19:49.033Z,4.00
2019-03-03T19:22:37.986Z,3.87
2019-03-03T19:25:26.885Z,6.43
2019-03-03T19:28:15.839Z,5.10
2019-03-03T19:31:04.860Z,6.37
2019-03-03T19:34:14.661Z,5.57
2019-03-03T19:37:03.639Z,4.30
2019-03-03T19:39:52.462Z,4.43
2019-03-03T19:42:41.384Z,5.07
2019-03-03T19:45:51.115Z,6.03
2019-03-03T19:48:40.118Z,2.83
2019-03-03T19:51:29.010Z,4.40
2019-03-03T19:54:17.893Z,5.50
2019-03-03T19:57:06.821Z,3.60
2019-03-03T19:59:55.762Z,4.20
2019-03-03T20:02:35.567Z,6.13
2019-03-03T20:05:24.552Z,4.07
2019-03-03T20:08:13.557Z,4.20
2019-03-03T20:11:02.378Z,5.13
2019-03-03T20:13:51.247Z,5.53
2019-03-03T20:16:40.194Z,4.13
2019-03-03T20:19:29.102Z,2.93
2019-03-03T20:22:18.013Z,4.27
2019-03-03T20:28:22.077Z,4.27
2019-03-03T20:31:10.927Z,4.33
2019-03-03T20:33:59.820Z,3.23
2019-03-03T20:36:48.688Z,5.10
2019-03-03T20:39:37.550Z,3.57
2019-03-03T20:42:26.391Z,5.00
2019-03-03T20:45:34.589Z,1.87
2019-03-03T20:48:23.489Z,2.47
2019-03-03T20:51:12.365Z,2.47
2019-03-03T20:53:54.082Z,1.80
2019-03-03T20:56:43.019Z,3.67
2019-03-03T20:59:31.890Z,2.37
2019-03-03T21:02:20.755Z,3.03
2019-03-03T21:05:02.810Z,1.50
2019-03-03T21:07:52.232Z,2.83
2019-03-03T21:10:42.338Z,3.53
2019-03-03T21:13:31.289Z,1.77
2019-03-03T21:16:20.119Z,2.57
2019-03-03T21:19:08.962Z,2.53
2019-03-03T21:21:57.868Z,2.70
2019-03-03T21:24:46.681Z,1.47
2019-03-03T21:27:35.558Z,1.33
2019-03-03T21:30:43.713Z,2.67
2019-03-03T21:33:32.599Z,1.67
2019-03-03T21:36:21.534Z,1.90
2019-03-03T21:39:10.998Z,3.03
2019-03-03T21:42:00.509Z,1.53
2019-03-03T21:44:49.370Z,1.80
2019-03-03T21:47:38.250Z,2.20
2019-03-03T21:50:48.089Z,1.40
2019-03-03T21:53:36.941Z,2.37
2019-03-03T21:56:18.735Z,1.33
2019-03-03T21:59:07.665Z,1.03
2019-03-03T22:01:56.566Z,1.57
2019-03-03T22:04:38.658Z,2.27
2019-03-03T22:07:27.472Z,1.67
2019-03-03T22:10:09.135Z,2.33
2019-03-03T22:16:13.929Z,2.40
2019-03-03T22:19:02.820Z,2.13
2019-03-03T22:21:51.623Z,1.23
2019-03-03T22:24:40.544Z,1.37
2019-03-03T22:27:29.351Z,2.73
2019-03-03T22:30:39.121Z,1.70
2019-03-03T22:33:27.976Z,2.70
2019-03-03T22:36:10.059Z,1.93
2019-03-03T22:38:58.906Z,2.43
2019-03-03T22:41:47.740Z,2.93
2019-03-03T22:44:38.100Z,2.83
2019-03-03T22:50:36.658Z,1.97
2019-03-03T22:53:25.541Z,2.23
2019-03-03T22:56:14.393Z,1.80
2019-03-03T22:59:03.317Z,2.70
2019-03-03T23:01:52.267Z,1.83
2019-03-03T23:05:02.173Z,2.27
2019-03-03T23:08:11.929Z,3.03
2019-03-03T23:11:39.409Z,3.57
2019-03-03T23:14:49.236Z,2.53
2019-03-03T23:17:58.975Z,2.13
2019-03-03T23:21:08.794Z,3.47
2019-03-03T23:24:36.303Z,1.30
2019-03-03T23:27:25.129Z,2.73
2019-03-03T23:30:14.042Z,2.20
2019-03-03T23:33:02.905Z,2.67
2019-03-03T23:35:51.726Z,2.33
2019-03-03T23:38:40.557Z,1.67
2019-03-03T23:41:29.353Z,2.47
2019-03-03T23:44:18.349Z,3.00
2019-03-03T23:47:07.149Z,3.03
2019-03-03T23:49:56.004Z,2.17
2019-03-03T23:52:44.906Z,3.23
2019-03-03T23:55:33.808Z,3.13
2019-03-03T23:58:22.624Z,3.67
